createdAt,value
2016-04-05T00:00:03.121Z,45.72
2016-04-05T00:01:03.139Z,45.91
2016-04-05T00:02:03.126Z,45.93
2016-04-05T00:03:03.129Z,46
2016-04-05T00:04:03.132Z,45.81
2016-04-05T00:05:03.150Z,45.81
2016-04-05T00:06:03.168Z,45.81
2016-04-05T00:08:03.174Z,45.81
2016-04-05T00:09:03.177Z,45.91
2016-04-05T00:10:03.179Z,45.91
2016-04-05T00:11:03.213Z,45.81
2016-04-05T00:12:03.201Z,45.81
2016-04-05T00:13:03.218Z,45.81
2016-04-05T00:14:03.206Z,45.91
2016-04-05T00:15:03.223Z,45.91
2016-04-05T00:16:03.226Z,45.81
2016-04-05T00:17:03.229Z,45.91
2016-04-05T00:18:03.247Z,45.72
2016-04-05T00:19:03.251Z,45.91
2016-04-05T00:20:03.143Z,45.81
2016-04-05T00:21:03.256Z,45.81
2016-04-05T00:22:03.274Z,45.72
2016-04-05T00:23:03.276Z,45.91
2016-04-05T00:24:03.279Z,45.81
2016-04-05T00:25:03.297Z,45.91
2016-04-05T00:26:03.300Z,45.91
2016-04-05T00:27:03.303Z,45.91
2016-04-05T00:28:03.322Z,45.91
2016-04-05T00:29:03.325Z,45.91
2016-04-05T00:30:03.327Z,45.91
2016-04-05T00:31:03.345Z,45.81
2016-04-05T00:32:03.348Z,45.91
2016-04-05T00:33:03.351Z,46
2016-04-05T00:34:03.369Z,45.91
2016-04-05T00:35:03.372Z,45.81
2016-04-05T00:36:03.390Z,46
2016-04-05T00:37:04.096Z,45.81
2016-04-05T00:38:03.395Z,45.81
2016-04-05T00:39:03.398Z,45.91
2016-04-05T00:40:03.416Z,45.91
2016-04-05T00:41:03.404Z,45.81
2016-04-05T00:42:03.453Z,45.91
2016-04-05T00:43:03.424Z,45.91
2016-04-05T00:44:03.427Z,45.91
2016-04-05T00:45:03.445Z,45.81
2016-04-05T00:46:03.448Z,45.81
2016-04-05T00:47:03.466Z,45.91
2016-04-05T00:48:03.468Z,46
2016-04-05T00:49:03.487Z,46
2016-04-05T00:50:03.520Z,46
2016-04-05T00:51:03.492Z,45.81
2016-04-05T00:52:03.495Z,45.91
2016-04-05T00:53:03.497Z,46
2016-04-05T00:54:03.501Z,45.81
2016-04-05T00:55:03.519Z,45.91
2016-04-05T00:56:03.537Z,45.91
2016-04-05T00:57:03.525Z,45.91
2016-04-05T00:58:03.542Z,46
2016-04-05T00:59:03.545Z,45.91
2016-04-05T01:00:03.547Z,45.81
2016-04-05T01:01:03.550Z,45.91
2016-04-05T01:02:03.569Z,45.91
2016-04-05T01:03:03.572Z,46
2016-04-05T01:04:03.591Z,45.81
2016-04-05T01:05:03.594Z,45.91
2016-04-05T01:06:03.596Z,46
2016-04-05T01:07:03.614Z,45.91
2016-04-05T01:08:03.616Z,45.91
2016-04-05T01:09:03.619Z,45.91
2016-04-05T01:10:03.638Z,45.91
2016-04-05T01:11:03.640Z,45.81
2016-04-05T01:12:03.643Z,46
2016-04-05T01:13:03.645Z,45.91
2016-04-05T01:14:03.663Z,46
2016-04-05T01:15:03.651Z,45.81
2016-04-05T01:16:03.668Z,45.91
2016-04-05T01:17:03.671Z,45.91
2016-04-05T01:18:03.690Z,45.91
2016-04-05T01:19:03.693Z,45.81
2016-04-05T01:20:03.696Z,45.91
2016-04-05T01:21:03.714Z,46
2016-04-05T01:22:03.717Z,46
2016-04-05T01:23:03.719Z,45.81
2016-04-05T01:24:03.722Z,46
2016-04-05T01:25:03.740Z,45.91
2016-04-05T01:26:03.742Z,45.81
2016-04-05T01:27:03.745Z,46
2016-04-05T01:28:03.748Z,45.91
2016-04-05T01:29:03.782Z,45.91
2016-04-05T01:30:03.785Z,46
2016-04-05T01:31:03.772Z,46
2016-04-05T01:32:03.791Z,46
2016-04-05T01:33:03.794Z,46
2016-04-05T01:34:03.796Z,45.81
2016-04-05T01:35:03.814Z,45.91
2016-04-05T01:36:03.816Z,46
2016-04-05T01:37:03.819Z,46
2016-04-05T01:38:03.822Z,45.91
2016-04-05T01:39:03.840Z,46
2016-04-05T01:40:03.844Z,46
2016-04-05T01:41:03.846Z,46
2016-04-05T01:42:03.864Z,45.91
2016-04-05T01:43:03.867Z,46
2016-04-05T01:44:03.869Z,46
2016-04-05T01:45:03.872Z,46
2016-04-05T01:46:03.896Z,45.81
2016-04-05T01:47:03.967Z,45.91
2016-04-05T01:48:03.891Z,46
2016-04-05T01:49:03.957Z,45.91
2016-04-05T01:50:03.935Z,46
2016-04-05T01:51:03.922Z,46
2016-04-05T01:52:03.925Z,46
2016-04-05T01:53:03.928Z,46
2016-04-05T01:54:03.945Z,45.91
2016-04-05T01:55:03.949Z,46
2016-04-05T01:56:03.951Z,46.1
2016-04-05T01:57:03.970Z,45.91
2016-04-05T01:58:03.972Z,46
2016-04-05T01:59:03.975Z,45.89
2016-04-05T02:00:04.150Z,46.1
2016-04-05T02:01:03.996Z,46
2016-04-05T02:02:04.014Z,46
2016-04-05T02:03:04.017Z,46.1
2016-04-05T02:04:04.020Z,45.91
2016-04-05T02:05:04.023Z,46
2016-04-05T02:06:04.042Z,46
2016-04-05T02:07:04.044Z,46
2016-04-05T02:08:04.052Z,46.1
2016-04-05T02:09:04.055Z,46.08
2016-04-05T02:10:04.057Z,46
2016-04-05T02:11:04.060Z,46.08
2016-04-05T02:12:04.077Z,45.91
2016-04-05T02:13:04.080Z,46.1
2016-04-05T02:14:04.083Z,45.98
2016-04-05T02:15:04.101Z,46.08
2016-04-05T02:16:04.104Z,45.98
2016-04-05T02:17:04.106Z,45.81
2016-04-05T02:18:04.109Z,46.08
2016-04-05T02:19:04.127Z,46.08
2016-04-05T02:20:04.146Z,45.98
2016-04-05T02:21:04.133Z,46.08
2016-04-05T02:22:04.151Z,45.98
2016-04-05T02:23:04.154Z,46.08
2016-04-05T02:24:04.157Z,46.1
2016-04-05T02:25:04.175Z,45.98
2016-04-05T02:26:04.178Z,46.08
2016-04-05T02:27:04.180Z,46.08
2016-04-05T02:28:04.183Z,45.98
2016-04-05T02:29:04.217Z,46.08
2016-04-05T02:30:04.203Z,46.08
2016-04-05T02:31:04.207Z,45.98
2016-04-05T02:32:04.209Z,46.08
2016-04-05T02:33:04.228Z,45.98
2016-04-05T02:34:04.230Z,46.08
2016-04-05T02:35:04.233Z,46.08
2016-04-05T02:36:04.236Z,46.08
2016-04-05T02:37:04.255Z,46.08
2016-04-05T02:38:04.257Z,45.98
2016-04-05T02:39:04.260Z,46.08
2016-04-05T02:40:04.277Z,45.98
2016-04-05T02:41:04.280Z,46.08
2016-04-05T02:42:04.283Z,46.08
2016-04-05T02:43:04.301Z,46.08
2016-04-05T02:44:04.305Z,45.98
2016-04-05T02:45:04.306Z,46.08
2016-04-05T02:46:04.311Z,46.08
2016-04-05T02:47:04.301Z,46.08
2016-04-05T02:48:04.291Z,46.08
2016-04-05T02:49:04.297Z,45.98
2016-04-05T02:50:04.287Z,45.98
2016-04-05T02:51:04.302Z,45.98
2016-04-05T02:52:04.284Z,45.98
2016-04-05T02:53:04.641Z,45.98
2016-04-05T02:54:04.296Z,45.98
2016-04-05T02:55:04.295Z,46.08
2016-04-05T02:56:04.296Z,45.98
2016-04-05T02:57:04.312Z,45.98
2016-04-05T02:58:04.313Z,45.98
2016-04-05T02:59:04.330Z,45.98
2016-04-05T03:00:04.206Z,46.08
2016-04-05T03:01:04.333Z,45.98
2016-04-05T03:02:04.335Z,45.98
2016-04-05T03:03:04.368Z,46.08
2016-04-05T03:04:04.667Z,45.89
2016-04-05T03:05:04.357Z,45.98
2016-04-05T03:06:04.219Z,45.89
2016-04-05T03:07:04.377Z,45.98
2016-04-05T03:08:04.380Z,46.08
2016-04-05T03:09:04.383Z,45.98
2016-04-05T03:10:04.386Z,46.08
2016-04-05T03:11:04.405Z,46.08
2016-04-05T03:12:04.407Z,45.98
2016-04-05T03:13:04.785Z,46.08
2016-04-05T03:14:04.428Z,46.08
2016-04-05T03:15:04.524Z,45.98
2016-04-05T03:16:04.730Z,46.08
2016-04-05T03:17:04.436Z,46.08
2016-04-05T03:18:04.438Z,46.08
2016-04-05T03:19:04.457Z,45.98
2016-04-05T03:20:04.459Z,46.08
2016-04-05T03:21:04.618Z,45.98
2016-04-05T03:22:04.481Z,46.08
2016-04-05T03:23:04.484Z,46.08
2016-04-05T03:24:04.486Z,46.08
2016-04-05T03:25:04.504Z,45.98
2016-04-05T03:26:04.507Z,45.98
2016-04-05T03:27:04.854Z,46.08
2016-04-05T03:28:04.512Z,45.98
2016-04-05T03:29:04.531Z,46.08
2016-04-05T03:30:04.753Z,46.08
2016-04-05T03:31:04.631Z,46.08
2016-04-05T03:32:04.540Z,45.98
2016-04-05T03:33:04.558Z,46.08
2016-04-05T03:34:04.561Z,46.08
2016-04-05T03:35:04.564Z,46.17
2016-04-05T03:36:04.563Z,45.98
2016-04-05T03:37:04.581Z,46.08
2016-04-05T03:38:04.536Z,45.98
2016-04-05T03:39:04.790Z,46.08
2016-04-05T03:40:04.605Z,45.98
2016-04-05T03:41:04.624Z,46.08
2016-04-05T03:42:04.922Z,45.98
2016-04-05T03:43:04.613Z,46.17
2016-04-05T03:44:04.632Z,45.98
2016-04-05T03:45:04.510Z,46.08
2016-04-05T03:46:04.933Z,46.17
2016-04-05T03:47:04.749Z,45.98
2016-04-05T03:48:04.658Z,45.98
2016-04-05T03:49:05.021Z,46.08
2016-04-05T03:50:04.663Z,46.08
2016-04-05T03:51:04.682Z,45.98
2016-04-05T03:52:04.731Z,46.08
2016-04-05T03:53:05.046Z,45.98
2016-04-05T03:54:04.690Z,45.98
2016-04-05T03:55:04.708Z,45.98
2016-04-05T03:56:04.915Z,46.08
2016-04-05T03:57:04.870Z,45.98
2016-04-05T03:58:04.748Z,46.08
2016-04-05T03:59:04.734Z,46.08
2016-04-05T04:00:04.815Z,46.17
2016-04-05T04:01:04.755Z,46.08
2016-04-05T04:02:04.742Z,46.17
2016-04-05T04:03:04.776Z,46.17
2016-04-05T04:04:04.810Z,45.98
2016-04-05T04:05:04.781Z,46.08
2016-04-05T04:06:04.784Z,46.27
2016-04-05T04:07:04.787Z,46.08
2016-04-05T04:08:04.822Z,46.27
2016-04-05T04:09:04.808Z,46.08
2016-04-05T04:10:04.967Z,46.08
2016-04-05T04:11:04.814Z,46.27
2016-04-05T04:12:04.879Z,46.08
2016-04-05T04:13:04.835Z,46.08
2016-04-05T04:14:04.838Z,45.98
2016-04-05T04:15:04.996Z,46.17
2016-04-05T04:16:04.999Z,46.08
2016-04-05T04:17:04.955Z,46.08
2016-04-05T04:18:04.863Z,45.98
2016-04-05T04:19:04.882Z,46.08
2016-04-05T04:20:05.104Z,46.27
2016-04-05T04:21:04.887Z,46.17
2016-04-05T04:22:05.249Z,46.37
2016-04-05T04:23:04.907Z,46.17
2016-04-05T04:24:04.957Z,46.08
2016-04-05T04:25:04.913Z,46.17
2016-04-05T04:26:04.916Z,46.17
2016-04-05T04:27:04.935Z,45.98
2016-04-05T04:28:04.937Z,46.08
2016-04-05T04:29:04.940Z,46.08
2016-04-05T04:30:05.005Z,46.06
2016-04-05T04:31:04.976Z,46.17
2016-04-05T04:32:04.964Z,46.08
2016-04-05T04:33:05.295Z,46.08
2016-04-05T04:34:04.970Z,46.17
2016-04-05T04:35:05.097Z,46.27
2016-04-05T04:36:05.005Z,45.98
2016-04-05T04:37:05.212Z,46.17
2016-04-05T04:38:05.011Z,46.17
2016-04-05T04:39:05.014Z,46.27
2016-04-05T04:40:05.017Z,46.17
2016-04-05T04:41:05.019Z,46.08
2016-04-05T04:42:05.288Z,46.17
2016-04-05T04:43:05.041Z,46.08
2016-04-05T04:44:05.355Z,46.27
2016-04-05T04:45:05.436Z,46.17
2016-04-05T04:46:05.064Z,46.17
2016-04-05T04:47:05.317Z,46.08
2016-04-05T04:48:05.085Z,46.08
2016-04-05T04:49:05.088Z,46.08
2016-04-05T04:50:05.434Z,46.08
2016-04-05T04:51:05.093Z,46.08
2016-04-05T04:52:05.408Z,46.17
2016-04-05T04:53:05.317Z,46.08
2016-04-05T04:54:05.117Z,46.08
2016-04-05T04:55:05.119Z,46.17
2016-04-05T04:56:05.153Z,46.17
2016-04-05T04:57:05.141Z,46.27
2016-04-05T04:58:05.159Z,46.08
2016-04-05T04:59:05.162Z,46.08
2016-04-05T05:00:05.648Z,46.37
2016-04-05T05:01:05.167Z,46.08
2016-04-05T05:02:05.170Z,46.08
2016-04-05T05:03:05.187Z,46.08
2016-04-05T05:04:05.550Z,46.27
2016-04-05T05:05:05.443Z,46.08
2016-04-05T05:06:05.195Z,46.08
2016-04-05T05:07:05.214Z,46.08
2016-04-05T05:08:05.373Z,46.17
2016-04-05T05:09:05.236Z,46.17
2016-04-05T05:10:05.238Z,46.27
2016-04-05T05:11:05.241Z,46.17
2016-04-05T05:12:05.244Z,46.17
2016-04-05T05:13:05.261Z,46.17
2016-04-05T05:14:05.374Z,46.08
2016-04-05T05:15:05.267Z,46.08
2016-04-05T05:16:05.270Z,46.08
2016-04-05T05:17:05.475Z,46.27
2016-04-05T05:18:05.290Z,46.27
2016-04-05T05:19:05.294Z,46.27
2016-04-05T05:20:05.358Z,46.27
2016-04-05T05:21:05.610Z,46.08
2016-04-05T05:22:05.317Z,46.25
2016-04-05T05:23:05.413Z,46.27
2016-04-05T05:24:05.526Z,46.08
2016-04-05T05:25:05.341Z,46.08
2016-04-05T05:26:05.546Z,46.27
2016-04-05T05:27:05.346Z,46.27
2016-04-05T05:28:05.552Z,46.27
2016-04-05T05:29:05.368Z,46.17
2016-04-05T05:30:05.573Z,46.15
2016-04-05T05:31:05.638Z,46.27
2016-04-05T05:32:05.390Z,46.17
2016-04-05T05:33:05.409Z,46.17
2016-04-05T05:34:05.396Z,46.27
2016-04-05T05:35:05.430Z,46.08
2016-04-05T05:36:05.464Z,46.27
2016-04-05T05:37:05.420Z,46.17
2016-04-05T05:38:05.422Z,46.27
2016-04-05T05:39:05.442Z,46.17
2016-04-05T05:40:05.444Z,46.08
2016-04-05T05:41:05.446Z,46.27
2016-04-05T05:42:05.450Z,46.27
2016-04-05T05:43:05.467Z,46.27
2016-04-05T05:44:05.517Z,46.27
2016-04-05T05:45:05.473Z,46.27
2016-04-05T05:46:05.475Z,46.27
2016-04-05T05:47:05.634Z,46.08
2016-04-05T05:48:05.496Z,45.98
2016-04-05T05:49:05.514Z,46.17
2016-04-05T05:50:05.501Z,46.27
2016-04-05T05:51:05.519Z,46.08
2016-04-05T05:52:05.522Z,46.27
2016-04-05T05:53:05.541Z,46.27
2016-04-05T05:54:05.544Z,46.27
2016-04-05T05:55:05.562Z,46.08
2016-04-05T05:56:05.549Z,46.27
2016-04-05T05:57:05.552Z,45.98
2016-04-05T05:58:05.554Z,46.08
2016-04-05T05:59:05.588Z,46.17
2016-04-05T06:00:05.591Z,46.08
2016-04-05T06:01:05.594Z,46.08
2016-04-05T06:02:05.596Z,46.17
2016-04-05T06:03:05.598Z,45.98
2016-04-05T06:04:05.618Z,46.17
2016-04-05T06:05:05.604Z,45.98
2016-04-05T06:06:05.622Z,46.08
2016-04-05T06:07:05.626Z,45.98
2016-04-05T06:08:05.628Z,46.08
2016-04-05T06:09:05.647Z,45.98
2016-04-05T06:10:05.650Z,46.08
2016-04-05T06:11:05.667Z,45.98
2016-04-05T06:12:05.670Z,45.98
2016-04-05T06:13:05.673Z,46.08
2016-04-05T06:14:05.675Z,45.98
2016-04-05T06:15:05.678Z,45.98
2016-04-05T06:16:05.697Z,45.98
2016-04-05T06:17:05.699Z,45.98
2016-04-05T06:18:05.702Z,45.98
2016-04-05T06:19:05.720Z,45.98
2016-04-05T06:20:05.722Z,45.89
2016-04-05T06:21:05.725Z,45.98
2016-04-05T06:22:05.728Z,45.89
2016-04-05T06:23:05.747Z,45.98
2016-04-05T06:24:05.766Z,45.89
2016-04-05T06:25:05.752Z,45.98
2016-04-05T06:26:05.770Z,45.89
2016-04-05T06:27:05.774Z,45.98
2016-04-05T06:28:05.776Z,45.79
2016-04-05T06:29:05.793Z,45.79
2016-04-05T06:30:05.797Z,45.98
2016-04-05T06:31:05.799Z,45.89
2016-04-05T06:32:05.802Z,45.79
2016-04-05T06:33:05.804Z,45.79
2016-04-05T06:34:05.823Z,45.89
2016-04-05T06:35:05.826Z,45.79
2016-04-05T06:36:05.828Z,45.79
2016-04-05T06:37:05.847Z,45.69
2016-04-05T06:38:05.850Z,45.79
2016-04-05T06:39:05.868Z,45.79
2016-04-05T06:40:05.870Z,45.69
2016-04-05T06:41:05.873Z,45.79
2016-04-05T06:42:05.892Z,45.79
2016-04-05T06:43:05.894Z,45.79
2016-04-05T06:44:05.897Z,45.69
2016-04-05T06:45:05.915Z,45.69
2016-04-05T06:46:05.903Z,45.79
2016-04-05T06:47:05.905Z,45.79
2016-04-05T06:48:05.922Z,45.69
2016-04-05T06:49:05.926Z,45.79
2016-04-05T06:50:05.928Z,45.69
2016-04-05T06:51:05.931Z,45.69
2016-04-05T06:52:05.950Z,45.79
2016-04-05T06:53:05.952Z,45.59
2016-04-05T06:54:05.971Z,45.79
2016-04-05T06:55:05.974Z,45.59
2016-04-05T06:56:05.976Z,45.69
2016-04-05T06:57:05.994Z,45.59
2016-04-05T06:58:05.997Z,45.59
2016-04-05T06:59:06.031Z,45.5
2016-04-05T07:00:06.002Z,45.5
2016-04-05T07:01:06.021Z,45.59
2016-04-05T07:02:06.023Z,45.59
2016-04-05T07:03:06.042Z,45.5
2016-04-05T07:04:06.029Z,45.69
2016-04-05T07:05:06.047Z,45.5
2016-04-05T07:06:06.034Z,45.5
2016-04-05T07:07:06.053Z,45.5
2016-04-05T07:08:06.088Z,45.5
2016-04-05T07:09:06.059Z,45.5
2016-04-05T07:10:06.078Z,45.4
2016-04-05T07:11:06.080Z,45.31
2016-04-05T07:12:06.099Z,45.4
2016-04-05T07:13:06.102Z,45.4
2016-04-05T07:14:06.105Z,45.4
2016-04-05T07:15:06.122Z,45.42
2016-04-05T07:16:06.125Z,45.5
2016-04-05T07:17:06.128Z,45.52
2016-04-05T07:18:06.131Z,45.42
2016-04-05T07:19:06.133Z,45.23
2016-04-05T07:20:06.152Z,45.33
2016-04-05T07:21:06.186Z,45.14
2016-04-05T07:22:06.157Z,45.23
2016-04-05T07:23:06.176Z,45.23
2016-04-05T07:24:06.179Z,45.23
2016-04-05T07:25:06.181Z,45.23
2016-04-05T07:26:06.184Z,45.23
2016-04-05T07:27:06.201Z,45.31
2016-04-05T07:28:06.220Z,45.23
2016-04-05T07:29:06.223Z,45.21
2016-04-05T07:30:06.225Z,45.33
2016-04-05T07:31:06.229Z,45.33
2016-04-05T07:32:06.231Z,45.33
2016-04-05T07:33:06.248Z,45.14
2016-04-05T07:34:06.251Z,45.14
2016-04-05T07:35:06.254Z,45.23
2016-04-05T07:36:06.257Z,45.23
2016-04-05T07:37:06.275Z,45.14
2016-04-05T07:38:06.295Z,45.14
2016-04-05T07:39:06.312Z,45.14
2016-04-05T07:40:06.299Z,45.14
2016-04-05T07:41:06.302Z,45.14
2016-04-05T07:42:06.305Z,45.14
2016-04-05T07:43:06.323Z,45.14
2016-04-05T07:44:06.325Z,45.04
2016-04-05T07:45:06.328Z,45.04
2016-04-05T07:46:06.347Z,45.14
2016-04-05T07:47:06.333Z,45.04
2016-04-05T07:48:06.352Z,45.23
2016-04-05T07:49:06.355Z,45.04
2016-04-05T07:50:06.358Z,45.04
2016-04-05T07:51:06.376Z,45.04
2016-04-05T07:52:06.379Z,45.04
2016-04-05T07:53:06.382Z,45.04
2016-04-05T07:54:06.384Z,45.14
2016-04-05T07:55:06.402Z,45.04
2016-04-05T07:56:06.405Z,45.04
2016-04-05T07:57:06.407Z,44.94
2016-04-05T07:58:06.426Z,45.14
2016-04-05T07:59:06.429Z,44.94
2016-04-05T08:00:06.431Z,45.14
2016-04-05T08:01:06.434Z,44.94
2016-04-05T08:02:06.467Z,44.84
2016-04-05T08:03:06.455Z,45.06
2016-04-05T08:04:06.457Z,45.23
2016-04-05T08:05:06.476Z,44.94
2016-04-05T08:06:06.479Z,44.84
2016-04-05T08:07:06.497Z,45.04
2016-04-05T08:08:06.500Z,44.87
2016-04-05T08:09:06.518Z,45.06
2016-04-05T08:10:06.520Z,44.87
2016-04-05T08:11:06.539Z,44.75
2016-04-05T08:12:06.525Z,44.84
2016-04-05T08:13:06.545Z,44.94
2016-04-05T08:14:06.531Z,44.94
2016-04-05T08:15:06.550Z,44.94
2016-04-05T08:16:06.552Z,44.75
2016-04-05T08:17:06.555Z,44.87
2016-04-05T08:18:06.574Z,44.75
2016-04-05T08:19:06.576Z,44.87
2016-04-05T08:20:06.595Z,44.96
2016-04-05T08:21:06.582Z,44.87
2016-04-05T08:22:06.599Z,44.57
2016-04-05T08:23:06.602Z,44.57
2016-04-05T08:24:06.620Z,44.57
2016-04-05T08:25:06.624Z,44.57
2016-04-05T08:26:06.626Z,44.57
2016-04-05T08:27:06.629Z,44.29
2016-04-05T08:28:06.647Z,44.57
2016-04-05T08:29:06.665Z,44.48
2016-04-05T08:30:06.668Z,44.57
2016-04-05T08:31:06.655Z,44.57
2016-04-05T08:32:06.673Z,44.77
2016-04-05T08:33:06.692Z,44.67
2016-04-05T08:34:06.695Z,44.48
2016-04-05T08:35:06.698Z,44.48
2016-04-05T08:36:06.700Z,44.57
2016-04-05T08:37:06.718Z,44.48
2016-04-05T08:38:06.720Z,44.29
2016-04-05T08:39:06.723Z,44.38
2016-04-05T08:40:06.742Z,44.38
2016-04-05T08:41:06.744Z,44.19
2016-04-05T08:42:06.748Z,44.19
2016-04-05T08:43:06.750Z,44.19
2016-04-05T08:44:06.768Z,44.57
2016-04-05T08:45:06.771Z,44.09
2016-04-05T08:46:06.789Z,44.09
2016-04-05T08:47:06.792Z,44.09
2016-04-05T08:48:06.794Z,44.4
2016-04-05T08:49:06.814Z,44.19
2016-04-05T08:50:06.816Z,44.09
2016-04-05T08:51:06.818Z,44.29
2016-04-05T08:52:06.821Z,44.09
2016-04-05T08:53:06.838Z,44.4
2016-04-05T08:54:06.842Z,44.4
2016-04-05T08:55:06.844Z,43.82
2016-04-05T08:56:06.847Z,43.82
2016-04-05T08:57:06.866Z,43.82
2016-04-05T08:58:06.868Z,44.31
2016-04-05T08:59:06.887Z,44.21
2016-04-05T09:00:06.890Z,44.12
2016-04-05T09:01:06.892Z,44.21
2016-04-05T09:02:06.910Z,44.12
2016-04-05T09:03:06.913Z,43.92
2016-04-05T09:04:06.916Z,43.92
2016-04-05T09:05:06.918Z,44.02
2016-04-05T09:06:06.937Z,43.82
2016-04-05T09:07:06.939Z,43.82
2016-04-05T09:08:06.942Z,43.82
2016-04-05T09:09:06.945Z,43.82
2016-04-05T09:10:06.967Z,43.73
2016-04-05T09:11:06.971Z,44.12
2016-04-05T09:12:06.989Z,43.73
2016-04-05T09:13:06.992Z,43.82
2016-04-05T09:14:06.994Z,43.82
2016-04-05T09:15:06.997Z,43.73
2016-04-05T09:16:07.016Z,43.63
2016-04-05T09:17:07.033Z,43.54
2016-04-05T09:18:07.052Z,43.44
2016-04-05T09:19:07.039Z,43.63
2016-04-05T09:20:07.058Z,43.55
2016-04-05T09:21:07.138Z,43.65
2016-04-05T09:22:07.063Z,43.65
2016-04-05T09:23:07.066Z,43.75
2016-04-05T09:24:07.084Z,43.65
2016-04-05T09:25:07.087Z,43.75
2016-04-05T09:26:07.089Z,43.95
2016-04-05T09:27:07.108Z,43.85
2016-04-05T09:28:07.110Z,43.95
2016-04-05T09:29:07.113Z,43.85
2016-04-05T09:30:07.115Z,43.46
2016-04-05T09:31:07.274Z,43.85
2016-04-05T09:32:07.137Z,43.37
2016-04-05T09:33:07.139Z,43.55
2016-04-05T09:34:07.157Z,43.58
2016-04-05T09:35:07.176Z,43.46
2016-04-05T09:36:07.320Z,43.38
2016-04-05T09:37:07.182Z,43.27
2016-04-05T09:38:07.184Z,43.29
2016-04-05T09:39:07.406Z,43.19
2016-04-05T09:40:07.189Z,43.29
2016-04-05T09:41:07.223Z,43.29
2016-04-05T09:42:07.210Z,43.09
2016-04-05T09:43:07.229Z,43.09
2016-04-05T09:44:07.231Z,43.09
2016-04-05T09:45:07.249Z,43.19
2016-04-05T09:46:07.455Z,43.19
2016-04-05T09:47:07.255Z,43.29
2016-04-05T09:48:07.273Z,43.29
2016-04-05T09:49:07.307Z,43.29
2016-04-05T09:50:07.280Z,43.09
2016-04-05T09:51:07.313Z,43
2016-04-05T09:52:07.284Z,43
2016-04-05T09:53:07.303Z,43
2016-04-05T09:55:07.339Z,42.9
2016-04-05T09:56:07.341Z,43.09
2016-04-05T09:57:07.344Z,43
2016-04-05T09:58:07.363Z,43
2016-04-05T09:59:07.381Z,43
2016-04-05T10:00:07.368Z,43
2016-04-05T10:01:07.401Z,42.9
2016-04-05T10:02:07.390Z,42.72
2016-04-05T10:03:07.392Z,42.44
2016-04-05T10:04:07.395Z,42.54
2016-04-05T10:05:07.397Z,42.44
2016-04-05T10:06:07.415Z,42.51
2016-04-05T10:07:07.417Z,42.63
2016-04-05T10:08:07.436Z,42.63
2016-04-05T10:09:07.423Z,42.63
2016-04-05T10:10:07.441Z,42.54
2016-04-05T10:11:07.460Z,42.54
2016-04-05T10:12:07.463Z,42.63
2016-04-05T10:13:07.481Z,42.63
2016-04-05T10:14:07.500Z,42.63
2016-04-05T10:15:07.487Z,42.63
2016-04-05T10:16:07.380Z,42.63
2016-04-05T10:17:07.508Z,42.63
2016-04-05T10:18:07.511Z,42.63
2016-04-05T10:19:07.528Z,42.72
2016-04-05T10:20:07.531Z,42.54
2016-04-05T10:21:07.533Z,42.63
2016-04-05T10:22:07.536Z,42.72
2016-04-05T10:23:07.539Z,42.54
2016-04-05T10:24:07.557Z,42.72
2016-04-05T10:25:07.561Z,42.72
2016-04-05T10:26:07.579Z,42.72
2016-04-05T10:27:07.582Z,42.72
2016-04-05T10:28:07.600Z,42.72
2016-04-05T10:29:07.602Z,42.63
2016-04-05T10:30:07.621Z,42.63
2016-04-05T10:31:07.623Z,42.63
2016-04-05T10:32:07.642Z,42.72
2016-04-05T10:33:07.645Z,42.72
2016-04-05T10:34:07.663Z,42.63
2016-04-05T10:35:07.650Z,42.63
2016-04-05T10:36:07.653Z,42.63
2016-04-05T10:37:07.670Z,42.54
2016-04-05T10:38:07.689Z,42.63
2016-04-05T10:39:07.692Z,42.63
2016-04-05T10:40:07.694Z,42.63
2016-04-05T10:41:07.712Z,42.44
2016-04-05T10:42:07.731Z,42.54
2016-04-05T10:43:07.717Z,42.44
2016-04-05T10:44:07.721Z,42.63
2016-04-05T10:45:07.723Z,42.63
2016-04-05T10:46:07.742Z,42.63
2016-04-05T10:47:07.744Z,42.72
2016-04-05T10:48:07.763Z,42.63
2016-04-05T10:49:07.766Z,42.63
2016-04-05T10:50:07.768Z,42.63
2016-04-05T10:51:07.786Z,42.54
2016-04-05T10:52:07.789Z,42.63
2016-04-05T10:53:07.807Z,42.63
2016-04-05T10:54:07.810Z,42.72
2016-04-05T10:55:07.828Z,42.63
2016-04-05T10:56:07.832Z,42.72
2016-04-05T10:57:07.834Z,42.63
2016-04-05T10:58:07.837Z,42.46
2016-04-05T10:59:07.855Z,42.65
2016-04-05T11:00:07.139Z,42.55
2016-04-05T11:01:07.876Z,42.36
2016-04-05T11:02:07.879Z,42.07
2016-04-05T11:03:07.881Z,42.36
2016-04-05T11:04:07.885Z,42.26
2016-04-05T11:05:07.902Z,42.07
2016-04-05T11:06:07.905Z,41.97
2016-04-05T11:07:07.924Z,41.97
2016-04-05T11:08:07.917Z,42.07
2016-04-05T11:09:07.926Z,41.97
2016-04-05T11:10:07.945Z,42.07
2016-04-05T11:11:07.948Z,42.07
2016-04-05T11:12:07.950Z,41.78
2016-04-05T11:13:07.953Z,42.07
2016-04-05T11:14:07.971Z,42.07
2016-04-05T11:15:07.990Z,42.17
2016-04-05T11:16:07.993Z,42.07
2016-04-05T11:17:07.995Z,42.26
2016-04-05T11:18:07.998Z,42.07
2016-04-05T11:19:08.001Z,42.17
2016-04-05T11:20:08.019Z,42.07
2016-04-05T11:21:08.022Z,42.07
2016-04-05T11:22:08.040Z,41.58
2016-04-05T11:23:08.059Z,41.8
2016-04-05T11:24:08.045Z,41.49
2016-04-05T11:25:08.063Z,41.7
2016-04-05T11:26:08.066Z,41.97
2016-04-05T11:27:08.085Z,41.97
2016-04-05T11:28:08.088Z,42.17
2016-04-05T11:29:08.091Z,42.07
2016-04-05T11:30:08.093Z,42.07
2016-04-05T11:31:08.111Z,42.07
2016-04-05T11:32:08.130Z,41.78
2016-04-05T11:33:08.132Z,42.26
2016-04-05T11:34:08.150Z,41.88
2016-04-05T11:35:08.169Z,42.26
2016-04-05T11:36:08.155Z,42.17
2016-04-05T11:37:08.158Z,42.26
2016-04-05T11:38:08.176Z,42.26
2016-04-05T11:39:08.195Z,42.36
2016-04-05T11:40:08.182Z,42.55
2016-04-05T11:41:08.200Z,42.46
2016-04-05T11:42:08.218Z,42.46
2016-04-05T11:43:08.220Z,42.46
2016-04-05T11:44:08.223Z,42.36
2016-04-05T11:45:08.226Z,42.17
2016-04-05T11:46:08.244Z,42.55
2016-04-05T11:47:08.248Z,42.46
2016-04-05T11:48:08.250Z,42.55
2016-04-05T11:49:08.269Z,42.36
2016-04-05T11:50:08.286Z,42.55
2016-04-05T11:51:08.287Z,42.46
2016-04-05T11:52:08.313Z,42.65
2016-04-05T11:53:08.275Z,42.55
2016-04-05T11:54:08.285Z,42.65
2016-04-05T11:55:08.279Z,42.65
2016-04-05T11:56:08.274Z,42.65
2016-04-05T11:57:08.289Z,42.65
2016-04-05T11:58:08.288Z,42.65
2016-04-05T11:59:08.303Z,42.65
2016-04-05T12:00:08.304Z,42.65
2016-04-05T12:01:08.303Z,42.65
2016-04-05T12:02:08.321Z,42.65
2016-04-05T12:03:08.323Z,42.65
2016-04-05T12:04:08.324Z,42.65
2016-04-05T12:05:08.356Z,42.75
2016-04-05T12:06:08.343Z,42.65
2016-04-05T12:07:08.361Z,42.65
2016-04-05T12:08:08.363Z,42.55
2016-04-05T12:09:08.381Z,42.55
2016-04-05T12:10:08.383Z,42.65
2016-04-05T12:11:08.386Z,42.75
2016-04-05T12:12:08.404Z,42.46
2016-04-05T12:13:08.391Z,42.55
2016-04-05T12:14:08.409Z,42.55
2016-04-05T12:15:08.428Z,42.55
2016-04-05T12:16:08.430Z,42.65
2016-04-05T12:17:08.433Z,42.55
2016-04-05T12:18:08.451Z,42.65
2016-04-05T12:19:08.454Z,42.55
2016-04-05T12:20:08.472Z,42.65
2016-04-05T12:21:08.475Z,42.65
2016-04-05T12:22:08.493Z,42.46
2016-04-05T12:23:08.496Z,42.55
2016-04-05T12:24:08.499Z,42.65
2016-04-05T12:25:08.517Z,42.55
2016-04-05T12:26:08.519Z,42.65
2016-04-05T12:27:08.522Z,42.65
2016-04-05T12:28:08.524Z,42.46
2016-04-05T12:29:08.544Z,42.55
2016-04-05T12:30:08.546Z,42.65
2016-04-05T12:31:08.549Z,42.65
2016-04-05T12:32:08.567Z,42.67
2016-04-05T12:33:08.570Z,42.65
2016-04-05T12:34:08.572Z,42.65
2016-04-05T12:35:08.590Z,42.65
2016-04-05T12:36:08.609Z,42.55
2016-04-05T12:37:08.612Z,42.65
2016-04-05T12:38:08.615Z,42.55
2016-04-05T12:39:08.618Z,42.65
2016-04-05T12:40:08.635Z,42.55
2016-04-05T12:41:08.637Z,42.55
2016-04-05T12:42:08.656Z,42.46
2016-04-05T12:43:08.675Z,42.46
2016-04-05T12:44:08.662Z,42.75
2016-04-05T12:45:08.681Z,42.85
2016-04-05T12:46:22.855Z,42.36
2016-04-05T12:47:08.685Z,42.36
2016-04-05T12:48:08.689Z,42.65
2016-04-05T12:49:08.707Z,42.36
2016-04-05T12:50:08.709Z,42.36
2016-04-05T12:51:08.728Z,42.46
2016-04-05T12:52:08.731Z,42.55
2016-04-05T12:53:08.749Z,42.55
2016-04-05T12:54:08.767Z,42.65
2016-04-05T12:55:08.754Z,42.55
2016-04-05T12:56:08.788Z,42.65
2016-04-05T12:57:08.774Z,42.65
2016-04-05T12:58:08.794Z,42.55
2016-04-05T12:59:08.640Z,42.55
2016-04-05T13:00:08.813Z,42.65